Time;durP1;ratioP1;P1;durP2;ratioP2;P2;SDS_P1;SDS_P2;PMS_P1;PMS_P2;Temp;Humidity;BMP_temperature;BMP_pressure;BME280_temperature;BME280_humidity;BME280_pressure;Samples;Min_cycle;Max_cycle;Signal;HPM_P1;HPM_P2
2022/11/03 00:01:10;;;;;;;;;22.80;21.20;;;;;15.66;57.48;99463.75;6042035;28;97178;-57
2022/11/03 00:04:16;;;;;;;;;24.00;21.00;;;;;15.69;57.71;99471.41;6026652;28;96667;-56
2022/11/03 00:07:21;;;;;;;;;25.00;23.40;;;;;15.65;58.06;99470.25;6044534;28;96380;-57
2022/11/03 00:10:24;;;;;;;;;23.00;20.00;;;;;15.60;57.92;99455.47;6032549;28;96508;-57
2022/11/03 00:13:28;;;;;;;;;23.33;22.00;;;;;15.60;58.13;99463.63;6021078;28;97657;-58
2022/11/03 00:16:32;;;;;;;;;22.67;21.67;;;;;15.55;58.40;99466.25;6088120;28;96442;-57
2022/11/03 00:19:36;;;;;;;;;25.00;23.00;;;;;15.52;58.63;99469.44;6099367;28;97043;-57
2022/11/03 00:22:39;;;;;;;;;22.33;20.00;;;;;15.52;58.68;99483.03;6098769;28;96517;-57
2022/11/03 00:25:43;;;;;;;;;26.40;25.40;;;;;15.53;58.79;99484.69;6081954;28;96298;-57
2022/11/03 00:28:49;;;;;;;;;25.80;23.40;;;;;15.57;58.78;99480.44;6081892;28;96283;-58
2022/11/03 00:31:53;;;;;;;;;27.00;22.60;;;;;15.59;58.75;99474.75;6099304;28;96326;-60
2022/11/03 00:34:56;;;;;;;;;23.00;21.00;;;;;15.60;58.49;99474.50;6075830;28;96409;-56
2022/11/03 00:37:59;;;;;;;;;23.00;21.40;;;;;15.55;58.30;99474.41;6073761;28;98698;-57
2022/11/03 00:41:04;;;;;;;;;24.00;22.00;;;;;15.48;58.48;99472.84;6098162;28;96580;-57
2022/11/03 00:44:12;;;;;;;;;24.40;22.60;;;;;15.45;58.58;99474.16;6081147;28;96687;-58
2022/11/03 00:47:15;;;;;;;;;25.60;22.40;;;;;15.36;58.87;99481.03;6092533;28;96413;-56
2022/11/03 00:50:23;;;;;;;;;26.00;23.00;;;;;15.32;59.03;99470.88;6101779;28;96305;-56
2022/11/03 00:53:27;;;;;;;;;23.00;21.00;;;;;15.28;59.39;99472.41;6104208;28;96946;-57
2022/11/03 00:56:32;;;;;;;;;24.00;22.00;;;;;15.23;59.52;99472.31;6102134;28;96430;-57
2022/11/03 00:59:37;;;;;;;;;27.40;25.00;;;;;15.18;59.51;99476.56;6084436;28;96678;-57
2022/11/03 01:02:40;;;;;;;;;25.00;23.00;;;;;15.14;59.70;99472.66;6084560;28;96114;-58
2022/11/03 01:09:05;;;;;;;;;29.60;26.60;;;;;15.07;60.36;99482.81;6077280;28;96779;-57
2022/11/03 01:12:11;;;;;;;;;27.00;25.00;;;;;15.05;60.29;99482.22;6105040;28;96868;-56
2022/11/03 01:15:16;;;;;;;;;25.00;23.00;;;;;15.00;60.52;99479.38;6102494;28;96334;-57
2022/11/03 01:18:19;;;;;;;;;26.60;24.60;;;;;14.99;60.42;99487.78;6084780;28;96748;-56
2022/11/03 01:21:23;;;;;;;;;30.00;27.50;;;;;15.01;60.50;99477.50;6100973;28;96321;-56
2022/11/03 01:24:26;;;;;;;;;30.00;27.60;;;;;14.86;60.51;99458.13;6101156;28;96827;-56
2022/11/03 01:27:30;;;;;;;;;27.00;24.00;;;;;14.96;60.40;99480.09;6102164;28;96378;-57
2022/11/03 01:30:34;;;;;;;;;24.80;22.40;;;;;14.93;60.42;99497.69;6101352;28;96965;-57
2022/11/03 01:33:38;;;;;;;;;32.00;28.40;;;;;14.80;60.21;99483.50;6102546;28;96979;-57
2022/11/03 01:36:41;;;;;;;;;25.60;22.00;;;;;14.84;59.95;99492.84;6102545;28;96520;-56
2022/11/03 01:39:44;;;;;;;;;31.25;26.00;;;;;14.79;59.95;99487.28;6103453;28;96335;-58
2022/11/03 01:42:47;;;;;;;;;25.00;22.80;;;;;14.73;59.99;99484.44;6102050;28;96378;-57
2022/11/03 01:46:02;;;;;;;;;26.60;23.60;;;;;14.70;60.09;99494.94;6104045;28;96367;-56
2022/11/03 01:49:11;;;;;;;;;30.00;25.80;;;;;14.63;60.00;99492.34;6103027;28;96527;-57
2022/11/03 01:52:20;;;;;;;;;22.00;21.00;;;;;14.60;60.58;99486.56;6103604;28;96320;-57
2022/11/03 01:55:27;;;;;;;;;30.00;25.00;;;;;14.55;60.66;99486.41;6091923;28;96456;-56
2022/11/03 01:58:34;;;;;;;;;27.00;23.80;;;;;14.50;60.56;99476.25;6100670;28;96419;-57
2022/11/03 02:01:39;;;;;;;;;20.25;19.25;;;;;14.49;60.62;99477.31;6102712;28;96255;-57
2022/11/03 02:04:43;;;;;;;;;22.80;20.80;;;;;14.48;60.57;99477.53;6084868;28;96314;-57
2022/11/03 02:07:53;;;;;;;;;26.00;22.00;;;;;14.24;60.45;99449.50;6102032;28;96436;-57
2022/11/03 02:10:57;;;;;;;;;22.40;21.60;;;;;14.40;60.46;99476.00;6087513;28;96241;-61
2022/11/03 02:14:01;;;;;;;;;19.00;17.60;;;;;14.34;59.95;99482.31;6096668;28;96292;-57
2022/11/03 02:17:09;;;;;;;;;22.00;19.00;;;;;14.32;60.29;99485.25;6102365;28;96315;-57
2022/11/03 02:20:16;;;;;;;;;19.25;15.25;;;;;14.31;60.67;99474.66;6107580;28;96975;-57
2022/11/03 02:23:32;;;;;;;;;17.00;15.50;;;;;14.31;61.12;99482.78;6101995;28;96361;-56
2022/11/03 02:26:39;;;;;;;;;17.25;15.25;;;;;14.29;61.30;99483.00;6094871;28;96419;-57
2022/11/03 02:29:42;;;;;;;;;18.80;16.40;;;;;14.34;61.03;99487.75;6103165;28;96352;-57
2022/11/03 02:32:57;;;;;;;;;18.60;17.60;;;;;14.37;61.06;99490.00;6108053;28;96169;-56
2022/11/03 02:36:06;;;;;;;;;21.00;18.40;;;;;14.39;61.02;99482.47;6084608;28;96768;-56
2022/11/03 02:39:14;;;;;;;;;17.33;16.33;;;;;14.39;61.00;99484.38;6101404;28;96523;-57
2022/11/03 02:42:21;;;;;;;;;18.20;17.20;;;;;14.38;60.95;99488.97;6100679;28;96122;-56
2022/11/03 02:45:26;;;;;;;;;21.50;17.50;;;;;14.38;60.73;99496.28;6085047;28;96683;-56
2022/11/03 02:48:30;;;;;;;;;22.00;19.00;;;;;14.38;60.74;99491.69;6082998;28;98501;-57
2022/11/03 02:51:33;;;;;;;;;21.40;19.40;;;;;14.33;60.74;99488.78;6099649;28;96341;-56
2022/11/03 02:54:41;;;;;;;;;22.60;20.00;;;;;14.28;61.02;99499.50;6100212;28;96391;-57
2022/11/03 02:57:53;;;;;;;;;22.75;18.75;;;;;14.26;61.17;99498.94;6098371;28;96919;-56
2022/11/03 03:01:02;;;;;;;;;20.00;19.00;;;;;14.23;61.26;99497.50;6085282;28;96943;-57
2022/11/03 03:04:09;;;;;;;;;24.00;20.25;;;;;14.20;61.28;99494.41;6099471;28;96360;-58
2022/11/03 03:07:17;;;;;;;;;20.80;20.40;;;;;14.16;61.13;99496.78;6100070;28;96562;-57
2022/11/03 03:10:24;;;;;;;;;23.60;20.00;;;;;14.13;61.19;99505.34;6100455;28;96933;-56
2022/11/03 03:13:28;;;;;;;;;21.80;20.00;;;;;14.10;61.49;99491.44;6101495;28;96542;-57
2022/11/03 03:16:37;;;;;;;;;21.00;20.00;;;;;14.05;60.99;99494.84;6101589;28;96924;-57
2022/11/03 03:19:48;;;;;;;;;22.00;19.00;;;;;14.01;61.54;99495.53;6102021;28;96349;-57
2022/11/03 03:22:57;;;;;;;;;22.00;21.00;;;;;14.00;61.48;99502.00;6099630;28;96354;-56
2022/11/03 03:26:05;;;;;;;;;17.00;16.00;;;;;13.99;61.88;99501.16;6100944;28;96269;-56
2022/11/03 03:29:15;;;;;;;;;20.50;19.00;;;;;13.98;62.35;99496.78;6100702;28;96436;-57
2022/11/03 03:32:22;;;;;;;;;18.33;18.33;;;;;13.99;62.45;99497.63;6100412;28;96351;-58
2022/11/03 03:35:29;;;;;;;;;17.50;16.50;;;;;13.96;63.13;99492.66;6101517;28;96314;-57
2022/11/03 03:38:38;;;;;;;;;17.00;16.80;;;;;14.00;62.57;99499.28;6100524;28;96020;-56
2022/11/03 03:41:43;;;;;;;;;20.60;19.40;;;;;14.07;62.06;99491.91;6101663;28;96663;-56
2022/11/03 03:44:50;;;;;;;;;19.75;17.75;;;;;14.11;61.73;99496.63;6101284;28;96291;-60
2022/11/03 03:47:53;;;;;;;;;24.50;22.50;;;;;14.12;61.66;99497.47;6102157;28;96873;-57
2022/11/03 03:51:01;;;;;;;;;21.00;19.00;;;;;14.07;61.47;99494.63;6101530;28;96834;-57
2022/11/03 03:54:05;;;;;;;;;20.00;16.25;;;;;14.01;61.22;99499.06;6100595;28;96599;-56
2022/11/03 03:57:14;;;;;;;;;20.00;17.00;;;;;13.98;61.29;99494.09;6099832;28;96469;-56
2022/11/03 04:00:19;;;;;;;;;18.00;15.00;;;;;13.93;61.24;99490.44;6100679;28;96256;-56
2022/11/03 04:03:24;;;;;;;;;17.00;16.40;;;;;13.83;61.17;99490.94;6083477;28;97382;-57
2022/11/03 04:06:28;;;;;;;;;16.00;15.00;;;;;13.84;61.10;99488.00;6084236;28;96680;-57
2022/11/03 04:09:31;;;;;;;;;19.20;17.40;;;;;13.80;61.19;99492.25;6099832;28;96888;-57
2022/11/03 04:22:38;;;;;;;;;20.67;18.00;;;;;13.63;61.29;99487.69;6100505;28;96301;-57
2022/11/03 04:25:42;;;;;;;;;19.75;17.25;;;;;13.56;61.18;99476.06;6082813;28;97790;-57
2022/11/03 04:28:46;;;;;;;;;20.40;19.40;;;;;13.56;61.38;99476.06;6097515;28;96851;-58
2022/11/03 04:31:50;;;;;;;;;19.25;17.00;;;;;13.50;61.24;99480.50;6099327;28;96314;-57
2022/11/03 04:34:54;;;;;;;;;17.75;17.50;;;;;13.42;61.44;99484.38;6101452;28;96741;-56
2022/11/03 04:38:02;;;;;;;;;19.00;16.20;;;;;13.34;61.51;99470.31;6082897;28;96921;-57
2022/11/03 04:41:12;;;;;;;;;19.20;17.20;;;;;13.34;61.81;99475.72;6096111;28;96406;-57
2022/11/03 04:44:16;;;;;;;;;19.40;17.40;;;;;13.23;61.88;99473.75;6099297;28;96215;-56
2022/11/03 04:47:21;;;;;;;;;19.40;16.40;;;;;13.23;61.89;99476.44;6096272;28;96364;-56
2022/11/03 04:50:24;;;;;;;;;19.00;17.00;;;;;13.26;61.67;99470.56;6097366;28;96559;-58
2022/11/03 04:53:32;;;;;;;;;17.00;15.00;;;;;13.22;61.85;99475.63;6099795;28;96329;-57
2022/11/03 04:56:36;;;;;;;;;20.00;17.00;;;;;13.14;61.98;99472.38;6099179;28;96437;-56
2022/11/03 04:59:39;;;;;;;;;18.00;14.60;;;;;13.13;61.65;99476.13;6099284;28;96302;-57
2022/11/03 05:02:46;;;;;;;;;20.00;18.00;;;;;13.07;61.42;99480.53;6098328;28;98823;-57
2022/11/03 05:05:55;;;;;;;;;19.00;18.00;;;;;13.02;61.60;99483.91;6092013;28;96519;-56
2022/11/03 05:09:02;;;;;;;;;20.50;19.00;;;;;12.94;62.16;99476.09;6097808;28;96177;-56
2022/11/03 05:12:08;;;;;;;;;16.40;15.40;;;;;13.02;62.03;99483.06;6099183;28;96737;-57
2022/11/03 05:15:29;;;;;;;;;18.60;17.60;;;;;12.91;61.68;99457.56;6091762;28;97084;-56
2022/11/03 05:18:36;;;;;;;;;17.80;16.40;;;;;12.98;61.10;99476.47;6088538;28;97101;-57
2022/11/03 05:21:40;;;;;;;;;19.00;17.00;;;;;12.88;60.90;99482.38;6088311;28;96284;-56
2022/11/03 05:24:43;;;;;;;;;19.60;17.00;;;;;12.78;60.85;99471.22;6105993;28;96410;-56
2022/11/03 05:27:46;;;;;;;;;20.00;17.00;;;;;12.71;60.76;99483.13;6093981;28;97476;-58
2022/11/03 05:30:51;;;;;;;;;18.00;17.00;;;;;12.61;61.03;99470.09;6104228;28;96544;-57
2022/11/03 05:33:58;;;;;;;;;18.60;16.60;;;;;12.54;60.51;99478.28;6099491;28;96415;-57
2022/11/03 05:37:20;;;;;;;;;19.25;17.00;;;;;12.50;60.69;99478.97;6098747;28;96465;-57
2022/11/03 05:40:28;;;;;;;;;20.00;16.00;;;;;12.44;60.76;99467.13;6100979;28;96297;-56
2022/11/03 05:43:33;;;;;;;;;18.20;16.00;;;;;12.43;60.37;99470.88;6096174;28;96268;-58
2022/11/03 05:46:38;;;;;;;;;19.80;17.40;;;;;12.44;60.08;99479.84;6098100;28;96440;-58
2022/11/03 05:49:42;;;;;;;;;18.00;17.00;;;;;12.46;60.02;99469.63;6097839;28;96437;-56
2022/11/03 05:52:48;;;;;;;;;23.20;18.20;;;;;12.56;59.28;99472.66;6082635;28;96377;-58
2022/11/03 05:55:51;;;;;;;;;21.20;19.80;;;;;12.79;59.24;99472.06;6082762;28;96341;-57
2022/11/03 05:58:56;;;;;;;;;17.00;16.00;;;;;13.09;57.95;99469.50;6083001;28;96234;-59
2022/11/03 06:02:00;;;;;;;;;21.40;19.40;;;;;13.53;56.64;99453.00;6089373;28;96593;-57
2022/11/03 06:05:14;;;;;;;;;20.60;19.40;;;;;14.58;54.29;99481.34;6115635;28;96813;-57
2022/11/03 06:08:20;;;;;;;;;17.80;15.60;;;;;15.83;52.11;99480.97;6099727;28;96302;-58
2022/11/03 06:11:28;;;;;;;;;21.40;19.00;;;;;17.28;47.64;99481.88;6107066;28;96405;-59
2022/11/03 06:14:32;;;;;;;;;22.20;20.20;;;;;18.59;44.24;99482.66;6081445;28;97330;-58
2022/11/03 06:17:37;;;;;;;;;21.00;19.00;;;;;19.87;41.26;99471.50;6098212;28;96525;-58
2022/11/03 06:20:46;;;;;;;;;23.75;20.75;;;;;21.10;38.07;99480.44;6079773;28;96838;-58
2022/11/03 06:23:49;;;;;;;;;19.00;18.00;;;;;22.16;36.45;99484.81;6079105;28;96780;-60
2022/11/03 06:26:52;;;;;;;;;19.00;18.60;;;;;23.13;34.43;99488.53;6102941;28;96868;-58
2022/11/03 06:29:58;;;;;;;;;19.40;18.00;;;;;24.13;32.75;99493.22;6105433;28;96223;-57
2022/11/03 06:33:12;;;;;;;;;17.20;16.60;;;;;24.86;30.90;99492.72;6105416;28;96348;-58
2022/11/03 06:36:19;;;;;;;;;19.00;18.40;;;;;25.74;29.83;99491.72;6104876;28;96340;-58
2022/11/03 06:39:24;;;;;;;;;20.00;17.25;;;;;26.70;28.48;99487.69;6105713;28;96881;-57
2022/11/03 06:42:32;;;;;;;;;17.25;16.25;;;;;27.64;27.11;99497.78;6085292;28;97863;-59
2022/11/03 06:45:35;;;;;;;;;18.25;16.50;;;;;28.46;26.59;99493.44;6104206;28;96135;-59
2022/11/03 06:48:39;;;;;;;;;19.00;18.20;;;;;29.03;25.34;99503.25;6104493;28;96274;-58
2022/11/03 06:51:44;;;;;;;;;16.00;15.00;;;;;29.49;24.73;99510.06;6105581;28;96307;-58
2022/11/03 06:54:48;;;;;;;;;17.50;16.50;;;;;29.86;24.36;99505.69;6105560;28;96366;-58
2022/11/03 06:57:54;;;;;;;;;17.00;16.00;;;;;30.36;24.00;99500.97;6104947;28;96309;-58
2022/11/03 07:01:01;;;;;;;;;17.33;16.00;;;;;30.97;22.85;99507.72;6104275;28;96449;-58
2022/11/03 07:04:15;;;;;;;;;15.60;14.00;;;;;31.87;21.89;99506.94;6104405;28;96293;-58
2022/11/03 07:07:20;;;;;;;;;15.00;15.00;;;;;32.55;20.87;99507.13;6103322;28;96405;-58
2022/11/03 07:10:26;;;;;;;;;17.00;14.00;;;;;33.30;20.48;99508.19;6103413;28;96438;-59
2022/11/03 07:13:33;;;;;;;;;15.60;15.00;;;;;34.02;19.72;99497.69;6102498;28;96266;-57
2022/11/03 07:16:41;;;;;;;;;17.00;15.00;;;;;34.78;18.71;99499.91;6101182;28;96264;-60
2022/11/03 07:19:45;;;;;;;;;17.00;14.00;;;;;35.50;17.80;99499.31;6100782;28;96802;-59
2022/11/03 07:22:52;;;;;;;;;15.00;14.00;;;;;36.22;17.86;99490.94;6098822;28;96909;-59
2022/11/03 07:25:58;;;;;;;;;18.00;16.00;;;;;36.85;16.67;99482.59;6100835;28;96307;-58
2022/11/03 07:29:02;;;;;;;;;14.00;13.00;;;;;37.34;16.14;99485.19;6100603;28;96295;-58
2022/11/03 07:32:11;;;;;;;;;15.00;13.20;;;;;37.88;15.93;99473.25;6100238;28;96455;-59
2022/11/03 07:35:34;;;;;;;;;14.40;13.00;;;;;38.04;15.96;99476.63;6102080;28;96209;-58
2022/11/03 07:39:00;;;;;;;;;14.50;13.00;;;;;38.80;14.84;99465.44;6101281;28;96419;-58
2022/11/03 07:42:13;;;;;;;;;12.80;11.80;;;;;39.39;14.23;99464.00;6102319;28;96243;-59
2022/11/03 07:45:38;;;;;;;;;16.00;13.80;;;;;39.95;14.14;99461.63;6102207;28;96440;-59
2022/11/03 07:48:45;;;;;;;;;11.25;11.25;;;;;40.57;14.20;99450.59;6101493;28;96230;-58
2022/11/03 07:51:49;;;;;;;;;13.40;12.00;;;;;40.78;13.65;99447.72;6101692;28;96740;-59
2022/11/03 07:54:56;;;;;;;;;12.60;10.80;;;;;40.46;13.38;99433.72;6100994;28;96368;-58
2022/11/03 07:58:00;;;;;;;;;12.75;12.00;;;;;40.54;13.69;99432.47;6100850;28;96444;-58
2022/11/03 08:01:20;;;;;;;;;12.20;12.00;;;;;40.96;13.33;99430.66;6101124;28;96449;-59
2022/11/03 08:04:26;;;;;;;;;11.00;10.40;;;;;41.23;13.41;99433.78;6100615;28;96260;-58
2022/11/03 08:07:30;;;;;;;;;13.40;11.40;;;;;41.50;13.14;99423.47;6098053;28;96938;-59
2022/11/03 08:10:35;;;;;;;;;14.00;13.00;;;;;41.82;12.91;99421.19;6097847;28;96482;-58
2022/11/03 08:13:38;;;;;;;;;11.00;10.00;;;;;42.17;12.89;99405.88;6098818;28;97189;-60
2022/11/03 08:16:41;;;;;;;;;9.40;8.40;;;;;42.60;11.90;99403.34;6098316;28;96867;-59
2022/11/03 08:19:44;;;;;;;;;9.80;8.80;;;;;42.78;11.69;99397.47;6096243;28;96246;-58
2022/11/03 08:22:48;;;;;;;;;10.60;9.60;;;;;42.97;11.77;99396.78;6095485;28;96575;-61
2022/11/03 08:26:13;;;;;;;;;8.40;7.40;;;;;43.20;11.63;99384.72;6097536;28;96393;-59
2022/11/03 08:29:17;;;;;;;;;11.00;10.00;;;;;43.25;11.74;99381.41;6098281;28;96877;-59
2022/11/03 08:32:20;;;;;;;;;10.00;9.00;;;;;43.60;11.51;99385.69;6096447;28;96325;-60
2022/11/03 08:35:23;;;;;;;;;12.20;11.00;;;;;43.54;10.92;99393.91;6095822;28;96837;-59
2022/11/03 08:38:33;;;;;;;;;9.00;9.00;;;;;43.88;11.14;99384.41;6095594;28;96916;-60
2022/11/03 08:41:38;;;;;;;;;6.00;6.00;;;;;44.28;10.72;99369.00;6101589;28;97673;-60
2022/11/03 08:44:41;;;;;;;;;6.40;5.40;;;;;43.88;11.00;99367.38;6094143;28;96849;-61
2022/11/03 08:47:45;;;;;;;;;5.00;4.20;;;;;42.70;11.24;99362.75;6094871;28;96203;-59
2022/11/03 08:50:52;;;;;;;;;5.00;5.00;;;;;43.14;10.95;99361.69;6095467;28;97642;-62
2022/11/03 08:53:56;;;;;;;;;5.60;5.00;;;;;43.22;10.87;99353.06;6096993;28;97639;-59
2022/11/03 08:57:00;;;;;;;;;5.33;5.00;;;;;43.79;10.79;99350.84;6098317;28;97440;-59
2022/11/03 09:00:06;;;;;;;;;4.75;4.00;;;;;44.27;9.96;99350.38;6098323;28;96912;-59
2022/11/03 09:03:10;;;;;;;;;4.50;4.00;;;;;44.12;10.14;99351.88;6096567;28;96332;-59
2022/11/03 09:06:16;;;;;;;;;4.00;4.00;;;;;43.63;10.43;99347.09;6098059;28;96359;-59
2022/11/03 09:09:20;;;;;;;;;6.00;5.00;;;;;43.15;10.59;99349.13;6100331;28;96381;-59
2022/11/03 09:12:44;;;;;;;;;5.00;5.00;;;;;43.20;10.71;99350.66;6100687;28;96340;-58
2022/11/03 09:15:47;;;;;;;;;4.60;4.60;;;;;43.05;10.91;99350.06;6100828;28;96622;-59
2022/11/03 09:18:51;;;;;;;;;4.00;3.50;;;;;42.70;10.83;99342.91;6100760;28;96224;-59
2022/11/03 09:21:55;;;;;;;;;3.00;3.00;;;;;42.42;10.96;99345.28;6100478;28;96465;-59
2022/11/03 09:24:59;;;;;;;;;5.00;4.00;;;;;42.44;11.13;99334.31;6101165;28;96433;-59
2022/11/03 09:28:04;;;;;;;;;4.00;4.00;;;;;41.86;11.49;99333.38;6101334;28;96409;-59
2022/11/03 09:31:08;;;;;;;;;3.80;3.80;;;;;42.06;11.39;99330.72;6101008;28;96607;-59
2022/11/03 09:34:12;;;;;;;;;4.00;4.00;;;;;41.23;11.77;99329.09;6100914;28;96252;-59
2022/11/03 09:37:16;;;;;;;;;3.00;3.00;;;;;41.11;11.70;99324.72;6101765;28;96516;-58
2022/11/03 09:40:20;;;;;;;;;3.20;3.20;;;;;41.32;11.19;99316.06;6101078;28;96827;-60
2022/11/03 09:43:25;;;;;;;;;4.00;4.00;;;;;41.14;10.88;99308.97;6083694;28;96712;-59
2022/11/03 09:46:30;;;;;;;;;3.50;3.00;;;;;41.62;11.29;99301.25;6101470;28;96284;-60
2022/11/03 09:49:34;;;;;;;;;8.40;7.00;;;;;42.21;11.77;99301.78;6100509;28;96814;-59
2022/11/03 09:52:38;;;;;;;;;6.80;6.00;;;;;42.33;11.37;99297.59;6100330;28;97060;-59
2022/11/03 09:55:41;;;;;;;;;9.00;8.50;;;;;42.57;11.51;99276.59;6089921;28;96320;-59
2022/11/03 09:58:46;;;;;;;;;8.00;7.40;;;;;42.51;11.19;99291.72;6080138;28;96346;-60
2022/11/03 10:01:56;;;;;;;;;9.00;8.00;;;;;42.71;11.53;99289.81;6100992;28;96597;-59
2022/11/03 10:05:01;;;;;;;;;6.00;5.60;;;;;42.89;11.20;99287.50;6098828;28;96873;-59
2022/11/03 10:08:20;;;;;;;;;6.00;6.00;;;;;41.80;11.63;99275.56;6100945;28;97506;-59
2022/11/03 10:11:25;;;;;;;;;6.20;6.00;;;;;41.65;12.16;99272.09;6109345;28;96572;-59
2022/11/03 10:14:29;;;;;;;;;8.00;8.00;;;;;41.68;11.89;99271.25;6100688;28;96883;-59
2022/11/03 10:17:33;;;;;;;;;8.00;8.00;;;;;42.00;12.12;99261.59;6080306;28;96309;-59
2022/11/03 10:20:36;;;;;;;;;8.00;7.00;;;;;42.11;11.43;99256.59;6100473;28;97048;-59
2022/11/03 10:23:40;;;;;;;;;9.00;8.00;;;;;42.28;11.58;99258.41;6094307;28;96447;-60
2022/11/03 10:26:45;;;;;;;;;6.00;6.00;;;;;41.11;11.46;99254.00;6080219;28;97374;-59
2022/11/03 10:33:27;;;;;;;;;4.00;3.00;;;;;39.55;11.66;99246.34;6285328;27;1491373;-60
2022/11/03 10:36:33;;;;;;;;;4.00;4.00;;;;;38.66;12.50;99241.94;6296759;27;97403;-59
2022/11/03 10:39:36;;;;;;;;;3.00;3.00;;;;;38.72;13.25;99235.47;6274528;27;96333;-59
2022/11/03 10:42:39;;;;;;;;;5.00;4.00;;;;;39.00;13.11;99234.69;6285108;27;96585;-58
2022/11/03 10:45:43;;;;;;;;;4.00;3.60;;;;;38.19;13.28;99221.28;6290355;27;96228;-60
2022/11/03 10:49:02;;;;;;;;;5.00;4.00;;;;;38.87;13.39;99219.38;6292490;27;97129;-59
2022/11/03 10:52:18;;;;;;;;;3.80;2.60;;;;;39.32;12.04;99221.41;6283123;27;96682;-60
2022/11/03 10:55:23;;;;;;;;;3.00;3.00;;;;;37.86;12.96;99213.91;6296031;27;96375;-58
2022/11/03 10:58:27;;;;;;;;;4.00;3.40;;;;;37.71;13.41;99198.97;6266163;27;96340;-59
2022/11/03 11:01:32;;;;;;;;;3.00;3.00;;;;;38.13;13.39;99198.34;6276178;27;96318;-62
2022/11/03 11:04:37;;;;;;;;;5.00;4.60;;;;;38.33;12.87;99189.50;6267948;27;96553;-59
2022/11/03 11:07:42;;;;;;;;;3.50;3.00;;;;;38.64;12.74;99190.78;6272532;27;96452;-60
2022/11/03 11:10:46;;;;;;;;;5.40;5.00;;;;;38.71;12.39;99180.31;6254383;27;96747;-60
2022/11/03 11:14:23;;;;;;;;;3.00;3.00;;;;;38.69;12.67;99174.28;6268828;27;96529;-62
2022/11/03 11:17:44;;;;;;;;;5.00;4.00;;;;;38.17;13.06;99168.16;6272560;27;96227;-59
2022/11/03 11:20:48;;;;;;;;;5.00;4.00;;;;;38.02;13.33;99160.13;6270352;27;96458;-60
2022/11/03 11:23:52;;;;;;;;;6.00;5.00;;;;;38.22;13.06;99155.69;6283131;27;96490;-59
2022/11/03 11:26:55;;;;;;;;;4.00;4.00;;;;;38.03;12.97;99148.44;6279481;27;96419;-59
2022/11/03 11:29:59;;;;;;;;;5.00;5.00;;;;;38.03;12.88;99145.63;6286547;27;96396;-59
2022/11/03 11:33:14;;;;;;;;;6.25;5.00;;;;;38.08;13.16;99152.88;6283369;27;96245;-59
2022/11/03 11:36:24;;;;;;;;;4.00;4.00;;;;;38.18;12.68;99138.00;6253109;27;96851;-59
2022/11/03 11:39:48;;;;;;;;;3.67;3.67;;;;;38.42;13.50;99139.22;6276980;27;96254;-60
2022/11/03 11:43:24;;;;;;;;;3.80;3.80;;;;;38.36;12.94;99127.56;6247948;27;96909;-61
2022/11/03 11:46:41;;;;;;;;;3.25;3.25;;;;;38.06;14.12;99116.69;6264393;27;96751;-60
2022/11/03 11:49:44;;;;;;;;;4.00;4.00;;;;;38.09;13.12;99118.69;6260257;27;96571;-60
2022/11/03 11:52:55;;;;;;;;;3.80;3.80;;;;;38.04;13.65;99098.56;6258115;27;96324;-60
2022/11/03 11:56:01;;;;;;;;;5.00;4.00;;;;;38.32;13.85;99100.59;6262544;27;96971;-63
2022/11/03 11:59:05;;;;;;;;;6.00;5.00;;;;;38.72;13.75;99093.75;6256416;27;97610;-64
2022/11/03 12:02:18;;;;;;;;;5.20;5.00;;;;;38.41;12.74;99075.66;6258593;27;96626;-60
2022/11/03 12:05:24;;;;;;;;;5.00;4.00;;;;;38.41;13.51;99075.66;6260673;27;96208;-63
2022/11/03 12:08:31;;;;;;;;;3.40;3.40;;;;;37.92;13.79;99065.97;6262599;27;96407;-61
2022/11/03 12:11:42;;;;;;;;;5.00;5.00;;;;;37.49;13.40;99064.19;6249928;27;96311;-61
2022/11/03 12:14:48;;;;;;;;;6.80;6.00;;;;;36.16;14.79;99057.38;6254911;27;96226;-63
2022/11/03 12:17:52;;;;;;;;;5.80;5.00;;;;;34.81;15.47;99058.53;6257434;27;96368;-60
2022/11/03 12:20:55;;;;;;;;;6.00;5.00;;;;;33.21;16.95;99049.28;6261782;27;96377;-59
2022/11/03 12:24:00;;;;;;;;;6.00;5.00;;;;;31.82;18.16;99044.31;6263074;27;96431;-60
2022/11/03 12:27:17;;;;;;;;;6.00;6.00;;;;;30.34;19.87;99033.19;6256473;27;96551;-64
2022/11/03 12:30:20;;;;;;;;;4.00;4.00;;;;;29.36;20.89;99038.91;6260335;27;97081;-61
2022/11/03 12:33:23;;;;;;;;;5.00;5.00;;;;;28.99;21.40;99027.59;6248565;27;98741;-59
2022/11/03 12:36:27;;;;;;;;;6.00;5.00;;;;;28.51;21.54;99024.50;6265042;27;96236;-58
2022/11/03 12:39:32;;;;;;;;;5.00;4.40;;;;;27.87;22.02;99016.34;6271427;27;96645;-60
2022/11/03 12:42:35;;;;;;;;;4.50;4.00;;;;;27.94;22.91;99008.34;6270763;27;96469;-59
2022/11/03 12:45:39;;;;;;;;;4.75;4.75;;;;;27.64;22.70;99004.72;6260934;27;96313;-60
2022/11/03 12:48:43;;;;;;;;;10.00;8.00;;;;;27.80;22.52;99007.75;6268594;27;96436;-60
2022/11/03 12:51:47;;;;;;;;;7.00;6.40;;;;;27.23;23.58;99012.75;6254709;27;96337;-59
2022/11/03 12:54:51;;;;;;;;;7.20;6.80;;;;;26.70;24.51;99006.41;6251202;27;96232;-60
2022/11/03 12:57:55;;;;;;;;;7.40;7.00;;;;;26.43;24.53;98995.66;6255144;27;96951;-60
2022/11/03 13:00:58;;;;;;;;;9.00;6.50;;;;;25.99;25.15;98988.38;6262586;27;96781;-63
2022/11/03 13:04:05;;;;;;;;;7.00;6.75;;;;;24.71;26.58;98966.31;6259069;27;96884;-60
2022/11/03 13:07:08;;;;;;;;;7.00;7.00;;;;;24.50;26.79;99002.63;6260731;27;96862;-61
2022/11/03 13:10:13;;;;;;;;;9.60;9.00;;;;;24.02;27.64;98983.00;6256977;27;98290;-59
2022/11/03 13:13:16;;;;;;;;;7.40;6.60;;;;;23.96;27.90;98988.91;6254032;27;96191;-59
2022/11/03 13:16:20;;;;;;;;;7.75;6.00;;;;;24.00;27.85;98978.91;6254694;27;96241;-60
2022/11/03 13:19:24;;;;;;;;;7.00;6.00;;;;;24.17;27.46;98979.94;6258120;27;96287;-60
2022/11/03 13:22:27;;;;;;;;;6.00;6.00;;;;;24.54;27.85;98978.81;6266530;27;96373;-59
2022/11/03 13:25:32;;;;;;;;;8.60;7.00;;;;;24.50;27.75;98977.00;6248453;27;96770;-59
2022/11/03 13:28:35;;;;;;;;;6.60;6.00;;;;;24.53;27.38;98977.19;6262906;27;96284;-59
2022/11/03 13:31:39;;;;;;;;;8.20;7.00;;;;;24.34;28.04;98970.19;6255250;27;96417;-59
2022/11/03 13:34:42;;;;;;;;;8.00;7.00;;;;;24.35;27.64;98969.91;6274655;27;96252;-59
2022/11/03 13:37:46;;;;;;;;;5.00;5.00;;;;;24.23;27.82;98964.13;6262377;27;96288;-60
2022/11/03 13:40:50;;;;;;;;;8.50;8.00;;;;;24.28;28.15;98961.25;6271221;27;96184;-59
2022/11/03 13:44:00;;;;;;;;;8.60;8.20;;;;;24.24;28.08;98962.19;6243512;27;96888;-60
2022/11/03 13:47:04;;;;;;;;;8.60;7.20;;;;;24.09;28.65;98952.28;6244656;27;96700;-60
2022/11/03 13:50:12;;;;;;;;;9.00;8.00;;;;;24.04;28.54;98947.69;6252808;27;96820;-59
2022/11/03 13:53:17;;;;;;;;;6.00;5.20;;;;;23.94;28.82;98952.59;6259333;27;96318;-59
2022/11/03 13:56:42;;;;;;;;;9.00;8.00;;;;;23.63;28.74;98939.47;6260504;27;96760;-59
2022/11/03 14:00:06;;;;;;;;;10.00;8.00;;;;;23.54;29.16;98938.53;6260477;27;96469;-59
2022/11/03 14:03:15;;;;;;;;;7.00;6.80;;;;;23.38;29.55;98936.34;6263166;27;96486;-59
2022/11/03 14:06:39;;;;;;;;;7.00;6.00;;;;;23.10;29.96;98932.75;6242396;27;96509;-60
2022/11/03 14:09:42;;;;;;;;;9.50;9.00;;;;;23.03;29.95;98922.13;6252992;27;96502;-59
2022/11/03 14:12:47;;;;;;;;;7.00;6.40;;;;;22.81;29.68;98927.47;6268297;27;96373;-59
2022/11/03 14:15:50;;;;;;;;;8.00;7.00;;;;;22.56;30.24;98905.88;6266530;27;96507;-59
2022/11/03 14:18:53;;;;;;;;;8.00;7.50;;;;;22.55;30.06;98913.28;6265812;27;96397;-59
2022/11/03 14:21:57;;;;;;;;;10.40;9.00;;;;;22.37;31.05;98912.22;6223653;27;96995;-59
2022/11/03 14:25:00;;;;;;;;;9.00;8.00;;;;;22.17;31.27;98908.94;6261942;27;96575;-59
2022/11/03 14:28:05;;;;;;;;;7.80;7.80;;;;;21.91;31.58;98898.28;6256788;27;96848;-61
2022/11/03 14:31:09;;;;;;;;;9.25;9.00;;;;;21.77;31.40;98904.78;6251255;27;96277;-58
2022/11/03 14:34:12;;;;;;;;;10.40;10.00;;;;;21.52;31.87;98898.50;6266869;27;96295;-59
2022/11/03 14:37:16;;;;;;;;;8.50;8.00;;;;;21.29;32.00;98901.25;6237386;27;96672;-58
2022/11/03 14:43:42;;;;;;;;;12.00;11.00;;;;;20.88;32.82;98889.84;6259040;27;96231;-63
2022/11/03 14:46:46;;;;;;;;;8.60;8.60;;;;;20.66;32.74;98896.63;6248797;27;96138;-59